San Diego, California
Traffic Map
Current Weather Conditions
San Diego, California
Broken Clouds
Broken Clouds
73°
Feels Like: 73°
Wind Chill: 73° Ceiling: 1400
Heat Index: 73° Visibility: 10mi
Dew Point: 66° Wind: 7mph
Humidity: 79% Direction: 200° (SSW)
Pressure: 29.92in Gusts: 0mph
Raw Report DataKSAN 200951Z 20006KT 10SM BKN014 23/19 A2992 RMK AO2 SLP130 T02280189
Traffic Incident Summary
Active as of:
Severity:
Category:
InformationThere was an issue retrieving the traffic information for this location. Please try a different location or try again shortly.
Advertisements